sensor_id;sensor_type;location;lat;lon;timestamp;temperature;humidity
1165;DHT22;571;50.930;6.926;2023-03-23T03:46:53;13.60;99.50
1165;DHT22;571;50.930;6.926;2023-03-23T03:49:20;13.60;99.70
1165;DHT22;571;50.930;6.926;2023-03-23T03:51:48;13.60;99.40
1165;DHT22;571;50.930;6.926;2023-03-23T03:54:15;13.70;99.10
1165;DHT22;571;50.930;6.926;2023-03-23T03:56:42;13.70;99.30
1165;DHT22;571;50.930;6.926;2023-03-23T04:19:33;13.40;99.90
1165;DHT22;571;50.930;6.926;2023-03-23T04:40:11;13.50;99.80
1165;DHT22;571;50.930;6.926;2023-03-23T04:56:34;13.70;99.30
1165;DHT22;571;50.930;6.926;2023-03-23T04:59:01;13.60;99.70
1165;DHT22;571;50.930;6.926;2023-03-23T05:01:28;13.60;99.60
1165;DHT22;571;50.930;6.926;2023-03-23T05:03:55;13.70;99.50
1165;DHT22;571;50.930;6.926;2023-03-23T05:06:21;13.60;99.70
1165;DHT22;571;50.930;6.926;2023-03-23T05:08:48;13.60;99.60
1165;DHT22;571;50.930;6.926;2023-03-23T05:11:15;13.70;99.50
1165;DHT22;571;50.930;6.926;2023-03-23T05:13:43;13.70;99.40
1165;DHT22;571;50.930;6.926;2023-03-23T05:16:10;13.80;99.50
1165;DHT22;571;50.930;6.926;2023-03-23T05:18:37;13.60;99.90
1165;DHT22;571;50.930;6.926;2023-03-23T05:21:04;13.70;99.70
1165;DHT22;571;50.930;6.926;2023-03-23T05:23:31;13.80;99.40
1165;DHT22;571;50.930;6.926;2023-03-23T05:25:59;13.70;99.70
1165;DHT22;571;50.930;6.926;2023-03-23T05:28:27;13.60;99.90
1165;DHT22;571;50.930;6.926;2023-03-23T05:30:57;13.70;99.60
1165;DHT22;571;50.930;6.926;2023-03-23T05:33:24;13.70;99.50
1165;DHT22;571;50.930;6.926;2023-03-23T05:35:50;13.70;99.60
1165;DHT22;571;50.930;6.926;2023-03-23T05:38:17;13.60;99.90
1165;DHT22;571;50.930;6.926;2023-03-23T05:40:45;13.70;99.70
1165;DHT22;571;50.930;6.926;2023-03-23T05:43:11;13.70;99.70
1165;DHT22;571;50.930;6.926;2023-03-23T05:45:38;13.60;99.90
1165;DHT22;571;50.930;6.926;2023-03-23T05:48:06;13.70;99.70
1165;DHT22;571;50.930;6.926;2023-03-23T05:50:34;13.70;99.70
1165;DHT22;571;50.930;6.926;2023-03-23T05:53:01;13.70;99.30
1165;DHT22;571;50.930;6.926;2023-03-23T05:55:29;13.60;99.40
1165;DHT22;571;50.930;6.926;2023-03-23T05:57:56;13.60;99.60
1165;DHT22;571;50.930;6.926;2023-03-23T06:00:23;13.70;99.40
1165;DHT22;571;50.930;6.926;2023-03-23T06:02:49;13.60;99.30
1165;DHT22;571;50.930;6.926;2023-03-23T06:05:18;13.60;99.30
1165;DHT22;571;50.930;6.926;2023-03-23T06:07:45;13.60;99.50
1165;DHT22;571;50.930;6.926;2023-03-23T06:10:12;13.60;99.20
1165;DHT22;571;50.930;6.926;2023-03-23T06:12:39;13.60;99.10
1165;DHT22;571;50.930;6.926;2023-03-23T06:15:08;13.60;98.50
1165;DHT22;571;50.930;6.926;2023-03-23T06:17:35;13.60;98.60
1165;DHT22;571;50.930;6.926;2023-03-23T06:20:03;13.60;98.70
1165;DHT22;571;50.930;6.926;2023-03-23T06:22:35;13.60;98.10
1165;DHT22;571;50.930;6.926;2023-03-23T06:25:03;13.80;97.30
1165;DHT22;571;50.930;6.926;2023-03-23T06:27:30;13.80;97.30
1165;DHT22;571;50.930;6.926;2023-03-23T06:29:57;13.90;96.90
1165;DHT22;571;50.930;6.926;2023-03-23T06:32:25;14.00;96.80
1165;DHT22;571;50.930;6.926;2023-03-23T06:34:52;14.10;96.50
1165;DHT22;571;50.930;6.926;2023-03-23T06:37:20;13.90;96.70
1165;DHT22;571;50.930;6.926;2023-03-23T06:39:48;13.90;97.20
1165;DHT22;571;50.930;6.926;2023-03-23T06:42:18;13.80;97.40
1165;DHT22;571;50.930;6.926;2023-03-23T06:44:45;14.00;96.90
1165;DHT22;571;50.930;6.926;2023-03-23T06:47:12;14.00;97.10
1165;DHT22;571;50.930;6.926;2023-03-23T06:49:39;14.10;96.80
1165;DHT22;571;50.930;6.926;2023-03-23T06:52:06;14.20;96.10
1165;DHT22;571;50.930;6.926;2023-03-23T06:54:32;14.30;96.40
1165;DHT22;571;50.930;6.926;2023-03-23T06:57:00;14.30;96.10
1165;DHT22;571;50.930;6.926;2023-03-23T06:59:27;14.30;96.30
1165;DHT22;571;50.930;6.926;2023-03-23T07:01:54;14.30;95.90
1165;DHT22;571;50.930;6.926;2023-03-23T07:04:21;14.20;96.30
1165;DHT22;571;50.930;6.926;2023-03-23T07:06:49;14.30;96.00
1165;DHT22;571;50.930;6.926;2023-03-23T07:09:15;14.40;95.90
1165;DHT22;571;50.930;6.926;2023-03-23T07:11:42;14.40;95.30
1165;DHT22;571;50.930;6.926;2023-03-23T07:14:10;14.40;95.70
1165;DHT22;571;50.930;6.926;2023-03-23T07:16:37;14.40;95.60
1165;DHT22;571;50.930;6.926;2023-03-23T07:19:04;14.40;95.40
1165;DHT22;571;50.930;6.926;2023-03-23T07:21:31;14.40;95.40
1165;DHT22;571;50.930;6.926;2023-03-23T07:23:57;14.50;95.40
1165;DHT22;571;50.930;6.926;2023-03-23T07:26:24;14.40;95.70
1165;DHT22;571;50.930;6.926;2023-03-23T07:28:51;14.40;95.10
1165;DHT22;571;50.930;6.926;2023-03-23T07:31:19;14.30;95.50
1165;DHT22;571;50.930;6.926;2023-03-23T07:33:46;14.40;95.60
1165;DHT22;571;50.930;6.926;2023-03-23T07:36:13;14.50;95.50
1165;DHT22;571;50.930;6.926;2023-03-23T07:38:40;14.50;95.30
1165;DHT22;571;50.930;6.926;2023-03-23T07:41:07;14.60;94.80
1165;DHT22;571;50.930;6.926;2023-03-23T07:43:34;14.60;94.70
1165;DHT22;571;50.930;6.926;2023-03-23T07:46:00;14.70;94.80
1165;DHT22;571;50.930;6.926;2023-03-23T07:48:29;14.60;94.70
1165;DHT22;571;50.930;6.926;2023-03-23T07:50:55;14.60;94.90
1165;DHT22;571;50.930;6.926;2023-03-23T07:53:22;14.70;95.00
1165;DHT22;571;50.930;6.926;2023-03-23T07:55:49;14.70;94.60
1165;DHT22;571;50.930;6.926;2023-03-23T07:58:16;14.70;94.50
1165;DHT22;571;50.930;6.926;2023-03-23T08:00:45;14.80;94.00
1165;DHT22;571;50.930;6.926;2023-03-23T08:03:14;14.80;93.60
1165;DHT22;571;50.930;6.926;2023-03-23T08:05:42;15.00;93.60
1165;DHT22;571;50.930;6.926;2023-03-23T08:08:09;15.00;93.80
1165;DHT22;571;50.930;6.926;2023-03-23T08:10:36;15.00;93.20
1165;DHT22;571;50.930;6.926;2023-03-23T08:13:03;15.00;93.20
1165;DHT22;571;50.930;6.926;2023-03-23T08:15:31;15.00;93.50
1165;DHT22;571;50.930;6.926;2023-03-23T08:17:59;14.90;93.70
1165;DHT22;571;50.930;6.926;2023-03-23T08:20:26;15.00;93.50
1165;DHT22;571;50.930;6.926;2023-03-23T08:22:56;15.00;93.60
1165;DHT22;571;50.930;6.926;2023-03-23T08:25:24;15.10;93.40
1165;DHT22;571;50.930;6.926;2023-03-23T08:27:51;15.20;93.10
1165;DHT22;571;50.930;6.926;2023-03-23T08:30:20;15.30;92.90
1165;DHT22;571;50.930;6.926;2023-03-23T08:32:47;15.30;92.60
1165;DHT22;571;50.930;6.926;2023-03-23T08:35:15;15.30;92.60
1165;DHT22;571;50.930;6.926;2023-03-23T08:37:43;15.30;92.50
1165;DHT22;571;50.930;6.926;2023-03-23T08:40:14;15.30;92.30
1165;DHT22;571;50.930;6.926;2023-03-23T08:42:45;15.30;92.20
1165;DHT22;571;50.930;6.926;2023-03-23T08:45:14;15.40;92.00
1165;DHT22;571;50.930;6.926;2023-03-23T08:47:42;15.50;91.70
1165;DHT22;571;50.930;6.926;2023-03-23T08:50:12;15.40;91.50
1165;DHT22;571;50.930;6.926;2023-03-23T08:52:39;15.40;91.80
1165;DHT22;571;50.930;6.926;2023-03-23T08:55:06;15.50;91.80
1165;DHT22;571;50.930;6.926;2023-03-23T08:57:36;15.50;91.50
1165;DHT22;571;50.930;6.926;2023-03-23T09:00:04;15.50;91.80
1165;DHT22;571;50.930;6.926;2023-03-23T09:02:39;15.50;91.50
1165;DHT22;571;50.930;6.926;2023-03-23T09:05:07;15.50;91.30
1165;DHT22;571;50.930;6.926;2023-03-23T09:07:35;15.50;91.10
1165;DHT22;571;50.930;6.926;2023-03-23T09:10:02;15.50;91.10
1165;DHT22;571;50.930;6.926;2023-03-23T09:12:29;15.50;91.20
1165;DHT22;571;50.930;6.926;2023-03-23T09:14:57;15.60;91.20
1165;DHT22;571;50.930;6.926;2023-03-23T09:17:24;15.60;91.20
1165;DHT22;571;50.930;6.926;2023-03-23T09:19:51;15.80;90.80
1165;DHT22;571;50.930;6.926;2023-03-23T09:22:18;15.80;90.80
1165;DHT22;571;50.930;6.926;2023-03-23T09:24:49;15.80;91.00
1165;DHT22;571;50.930;6.926;2023-03-23T09:27:17;16.00;90.80
1165;DHT22;571;50.930;6.926;2023-03-23T09:29:53;16.10;90.50
1165;DHT22;571;50.930;6.926;2023-03-23T09:32:21;16.10;90.10
1165;DHT22;571;50.930;6.926;2023-03-23T09:34:48;16.20;90.40
1165;DHT22;571;50.930;6.926;2023-03-23T09:37:15;16.20;89.80
1165;DHT22;571;50.930;6.926;2023-03-23T09:39:42;16.20;88.80
1165;DHT22;571;50.930;6.926;2023-03-23T09:42:18;16.20;89.10
1165;DHT22;571;50.930;6.926;2023-03-23T09:44:57;16.20;87.90
1165;DHT22;571;50.930;6.926;2023-03-23T09:47:32;16.20;88.40
1165;DHT22;571;50.930;6.926;2023-03-23T09:50:07;16.10;86.80
1165;DHT22;571;50.930;6.926;2023-03-23T09:52:39;16.00;86.70
1165;DHT22;571;50.930;6.926;2023-03-23T09:55:11;16.00;86.90
1165;DHT22;571;50.930;6.926;2023-03-23T09:57:45;16.10;86.50
1165;DHT22;571;50.930;6.926;2023-03-23T10:00:20;16.10;86.80
1165;DHT22;571;50.930;6.926;2023-03-23T10:02:52;16.00;86.70
1165;DHT22;571;50.930;6.926;2023-03-23T10:05:31;16.10;87.10
1165;DHT22;571;50.930;6.926;2023-03-23T10:08:00;16.00;86.50
1165;DHT22;571;50.930;6.926;2023-03-23T10:10:48;16.00;87.40
1165;DHT22;571;50.930;6.926;2023-03-23T10:13:23;16.10;88.40
1165;DHT22;571;50.930;6.926;2023-03-23T10:15:52;16.20;88.30
1165;DHT22;571;50.930;6.926;2023-03-23T10:18:24;16.40;88.80
1165;DHT22;571;50.930;6.926;2023-03-23T10:20:56;16.40;89.80
1165;DHT22;571;50.930;6.926;2023-03-23T10:23:44;16.60;89.20
1165;DHT22;571;50.930;6.926;2023-03-23T10:26:21;16.60;89.10
1165;DHT22;571;50.930;6.926;2023-03-23T10:28:56;16.60;89.40
1165;DHT22;571;50.930;6.926;2023-03-23T10:31:29;16.50;90.00
1165;DHT22;571;50.930;6.926;2023-03-23T10:34:04;16.50;90.10
1165;DHT22;571;50.930;6.926;2023-03-23T10:36:36;16.40;90.30
1165;DHT22;571;50.930;6.926;2023-03-23T10:39:10;16.30;90.60
1165;DHT22;571;50.930;6.926;2023-03-23T10:41:37;16.20;90.90
1165;DHT22;571;50.930;6.926;2023-03-23T10:44:10;16.20;91.30
1165;DHT22;571;50.930;6.926;2023-03-23T10:46:43;16.20;91.60
1165;DHT22;571;50.930;6.926;2023-03-23T10:49:18;16.20;92.00
1165;DHT22;571;50.930;6.926;2023-03-23T10:51:52;16.10;92.20
1165;DHT22;571;50.930;6.926;2023-03-23T10:54:27;16.10;92.40
1165;DHT22;571;50.930;6.926;2023-03-23T10:56:58;16.10;92.50
1165;DHT22;571;50.930;6.926;2023-03-23T10:59:28;16.00;92.70
1165;DHT22;571;50.930;6.926;2023-03-23T11:01:59;16.10;92.70
1165;DHT22;571;50.930;6.926;2023-03-23T11:04:29;16.10;92.80
1165;DHT22;571;50.930;6.926;2023-03-23T11:07:00;16.10;92.90
1165;DHT22;571;50.930;6.926;2023-03-23T11:09:35;16.00;92.90
1165;DHT22;571;50.930;6.926;2023-03-23T11:12:02;16.10;92.70
1165;DHT22;571;50.930;6.926;2023-03-23T11:14:31;16.20;92.70
1165;DHT22;571;50.930;6.926;2023-03-23T11:17:03;16.20;92.50
1165;DHT22;571;50.930;6.926;2023-03-23T11:19:33;16.20;92.50
1165;DHT22;571;50.930;6.926;2023-03-23T11:22:07;16.20;92.30
1165;DHT22;571;50.930;6.926;2023-03-23T11:24:35;16.30;92.40
1165;DHT22;571;50.930;6.926;2023-03-23T11:27:03;16.40;92.30
1165;DHT22;571;50.930;6.926;2023-03-23T11:29:33;16.40;92.50
1165;DHT22;571;50.930;6.926;2023-03-23T11:32:06;16.30;92.50
1165;DHT22;571;50.930;6.926;2023-03-23T11:34:40;16.20;92.70
1165;DHT22;571;50.930;6.926;2023-03-23T11:37:10;16.20;92.90
1165;DHT22;571;50.930;6.926;2023-03-23T11:39:47;16.30;92.60
1165;DHT22;571;50.930;6.926;2023-03-23T11:42:20;16.30;92.50
1165;DHT22;571;50.930;6.926;2023-03-23T11:44:47;16.30;93.00
1165;DHT22;571;50.930;6.926;2023-03-23T11:47:22;16.20;92.80
1165;DHT22;571;50.930;6.926;2023-03-23T11:49:57;16.20;92.60
1165;DHT22;571;50.930;6.926;2023-03-23T11:52:33;16.10;92.70
1165;DHT22;571;50.930;6.926;2023-03-23T11:55:07;16.00;93.00
1165;DHT22;571;50.930;6.926;2023-03-23T11:57:35;15.80;94.70
1165;DHT22;571;50.930;6.926;2023-03-23T12:00:11;15.70;95.20
1165;DHT22;571;50.930;6.926;2023-03-23T12:02:56;15.70;95.30
1165;DHT22;571;50.930;6.926;2023-03-23T12:05:42;15.90;95.00
1165;DHT22;571;50.930;6.926;2023-03-23T12:08:24;16.10;94.10
1165;DHT22;571;50.930;6.926;2023-03-23T12:10:59;16.20;93.80
1165;DHT22;571;50.930;6.926;2023-03-23T12:13:42;16.20;93.50
1165;DHT22;571;50.930;6.926;2023-03-23T12:16:22;16.30;93.40
1165;DHT22;571;50.930;6.926;2023-03-23T12:19:00;16.30;93.40
1165;DHT22;571;50.930;6.926;2023-03-23T12:21:34;16.40;93.30
1165;DHT22;571;50.930;6.926;2023-03-23T12:24:11;16.60;93.30
1165;DHT22;571;50.930;6.926;2023-03-23T12:26:46;16.90;93.60
1165;DHT22;571;50.930;6.926;2023-03-23T12:29:47;17.50;92.20
1165;DHT22;571;50.930;6.926;2023-03-23T12:32:35;18.10;91.30
1165;DHT22;571;50.930;6.926;2023-03-23T12:35:18;18.50;90.20
1165;DHT22;571;50.930;6.926;2023-03-23T12:37:59;18.70;88.60
1165;DHT22;571;50.930;6.926;2023-03-23T12:40:46;18.70;87.80
1165;DHT22;571;50.930;6.926;2023-03-23T12:43:21;18.50;87.10
1165;DHT22;571;50.930;6.926;2023-03-23T12:46:07;18.20;87.00
1165;DHT22;571;50.930;6.926;2023-03-23T12:48:40;17.80;88.10
1165;DHT22;571;50.930;6.926;2023-03-23T12:51:15;17.70;88.50
1165;DHT22;571;50.930;6.926;2023-03-23T12:53:50;17.40;89.30
1165;DHT22;571;50.930;6.926;2023-03-23T12:56:24;17.30;90.10
1165;DHT22;571;50.930;6.926;2023-03-23T12:58:58;17.40;90.40
1165;DHT22;571;50.930;6.926;2023-03-23T13:01:30;17.50;90.40
1165;DHT22;571;50.930;6.926;2023-03-23T13:04:01;17.60;89.60
1165;DHT22;571;50.930;6.926;2023-03-23T13:06:35;17.60;89.00
1165;DHT22;571;50.930;6.926;2023-03-23T13:09:04;17.60;89.40
1165;DHT22;571;50.930;6.926;2023-03-23T13:11:35;17.70;89.50
1165;DHT22;571;50.930;6.926;2023-03-23T13:17:06;17.60;89.40
1165;DHT22;571;50.930;6.926;2023-03-23T13:20:12;17.40;90.10
1165;DHT22;571;50.930;6.926;2023-03-23T13:22:46;17.40;90.20
1165;DHT22;571;50.930;6.926;2023-03-23T13:25:17;17.20;90.50
1165;DHT22;571;50.930;6.926;2023-03-23T13:27:56;17.20;90.50
1165;DHT22;571;50.930;6.926;2023-03-23T13:30:23;17.20;90.30
1165;DHT22;571;50.930;6.926;2023-03-23T13:32:51;17.10;90.50
1165;DHT22;571;50.930;6.926;2023-03-23T13:35:19;17.10;90.70
1165;DHT22;571;50.930;6.926;2023-03-23T13:37:50;17.00;90.70
1165;DHT22;571;50.930;6.926;2023-03-23T13:40:24;16.90;91.20
1165;DHT22;571;50.930;6.926;2023-03-23T13:42:54;16.70;91.90
1165;DHT22;571;50.930;6.926;2023-03-23T13:45:22;16.60;91.90
1165;DHT22;571;50.930;6.926;2023-03-23T13:47:50;16.60;92.20
1165;DHT22;571;50.930;6.926;2023-03-23T13:50:29;16.70;92.30
1165;DHT22;571;50.930;6.926;2023-03-23T13:53:00;16.90;92.20
1165;DHT22;571;50.930;6.926;2023-03-23T13:55:39;17.10;92.00
1165;DHT22;571;50.930;6.926;2023-03-23T13:58:12;17.40;91.00
1165;DHT22;571;50.930;6.926;2023-03-23T14:00:48;17.60;91.00
1165;DHT22;571;50.930;6.926;2023-03-23T14:03:19;17.90;90.00
1165;DHT22;571;50.930;6.926;2023-03-23T14:05:49;17.80;89.80
1165;DHT22;571;50.930;6.926;2023-03-23T14:08:24;17.80;90.20
1165;DHT22;571;50.930;6.926;2023-03-23T14:10:53;17.90;90.30
1165;DHT22;571;50.930;6.926;2023-03-23T14:13:29;18.00;88.50
1165;DHT22;571;50.930;6.926;2023-03-23T14:15:59;18.00;88.00
1165;DHT22;571;50.930;6.926;2023-03-23T14:18:31;17.90;88.60
1165;DHT22;571;50.930;6.926;2023-03-23T14:20:59;17.80;88.30
1165;DHT22;571;50.930;6.926;2023-03-23T14:23:27;17.80;88.30
1165;DHT22;571;50.930;6.926;2023-03-23T14:26:00;17.70;88.10
1165;DHT22;571;50.930;6.926;2023-03-23T14:28:36;17.60;87.40
1165;DHT22;571;50.930;6.926;2023-03-23T14:31:04;17.50;87.90
1165;DHT22;571;50.930;6.926;2023-03-23T14:33:31;17.50;87.70
1165;DHT22;571;50.930;6.926;2023-03-23T14:35:59;17.50;87.60
1165;DHT22;571;50.930;6.926;2023-03-23T14:38:27;17.30;87.60
1165;DHT22;571;50.930;6.926;2023-03-23T14:41:01;17.20;87.90
1165;DHT22;571;50.930;6.926;2023-03-23T14:43:29;17.10;88.70
1165;DHT22;571;50.930;6.926;2023-03-23T14:45:59;17.00;89.20
1165;DHT22;571;50.930;6.926;2023-03-23T14:48:27;16.90;89.40
1165;DHT22;571;50.930;6.926;2023-03-23T14:50:57;16.80;90.20
1165;DHT22;571;50.930;6.926;2023-03-23T14:53:32;16.80;92.10
1165;DHT22;571;50.930;6.926;2023-03-23T14:56:01;16.60;91.90
1165;DHT22;571;50.930;6.926;2023-03-23T14:58:29;16.50;92.30
1165;DHT22;571;50.930;6.926;2023-03-23T15:00:59;16.50;92.20
1165;DHT22;571;50.930;6.926;2023-03-23T15:03:28;16.50;91.70
1165;DHT22;571;50.930;6.926;2023-03-23T15:06:00;16.60;92.10
1165;DHT22;571;50.930;6.926;2023-03-23T15:08:32;16.80;91.40
1165;DHT22;571;50.930;6.926;2023-03-23T15:11:06;17.10;91.00
1165;DHT22;571;50.930;6.926;2023-03-23T15:13:35;17.30;90.40
1165;DHT22;571;50.930;6.926;2023-03-23T15:16:03;17.50;90.30
1165;DHT22;571;50.930;6.926;2023-03-23T15:18:33;17.50;89.70
1165;DHT22;571;50.930;6.926;2023-03-23T15:21:09;17.60;90.10
1165;DHT22;571;50.930;6.926;2023-03-23T15:23:41;17.90;89.30
1165;DHT22;571;50.930;6.926;2023-03-23T15:26:21;18.00;88.50
1165;DHT22;571;50.930;6.926;2023-03-23T15:28:49;18.00;88.50
1165;DHT22;571;50.930;6.926;2023-03-23T15:31:16;18.20;86.00
1165;DHT22;571;50.930;6.926;2023-03-23T15:33:43;18.20;85.30
1165;DHT22;571;50.930;6.926;2023-03-23T15:36:16;18.10;84.70
1165;DHT22;571;50.930;6.926;2023-03-23T15:38:46;18.10;84.20
1165;DHT22;571;50.930;6.926;2023-03-23T15:41:22;18.10;84.60
1165;DHT22;571;50.930;6.926;2023-03-23T15:43:51;18.10;84.00
1165;DHT22;571;50.930;6.926;2023-03-23T15:46:22;18.10;84.40
1165;DHT22;571;50.930;6.926;2023-03-23T15:48:51;18.10;84.90
1165;DHT22;571;50.930;6.926;2023-03-23T15:51:20;18.10;85.10
1165;DHT22;571;50.930;6.926;2023-03-23T15:53:50;18.00;85.40
1165;DHT22;571;50.930;6.926;2023-03-23T15:56:18;18.00;84.90
1165;DHT22;571;50.930;6.926;2023-03-23T15:58:45;17.80;84.90
1165;DHT22;571;50.930;6.926;2023-03-23T16:01:15;17.70;84.80
1165;DHT22;571;50.930;6.926;2023-03-23T16:03:44;17.80;85.20
1165;DHT22;571;50.930;6.926;2023-03-23T16:06:13;17.80;84.90
1165;DHT22;571;50.930;6.926;2023-03-23T16:08:41;17.80;84.40
1165;DHT22;571;50.930;6.926;2023-03-23T16:11:10;17.80;84.90
1165;DHT22;571;50.930;6.926;2023-03-23T16:13:37;17.80;84.90
1165;DHT22;571;50.930;6.926;2023-03-23T16:16:06;17.80;84.50
1165;DHT22;571;50.930;6.926;2023-03-23T16:18:33;17.70;84.20
1165;DHT22;571;50.930;6.926;2023-03-23T16:21:00;17.60;84.90
1165;DHT22;571;50.930;6.926;2023-03-23T16:23:28;17.60;84.80
1165;DHT22;571;50.930;6.926;2023-03-23T16:25:54;17.70;84.60
1165;DHT22;571;50.930;6.926;2023-03-23T16:28:22;17.60;84.80
1165;DHT22;571;50.930;6.926;2023-03-23T16:30:49;17.70;84.40
1165;DHT22;571;50.930;6.926;2023-03-23T16:33:16;17.70;83.90
1165;DHT22;571;50.930;6.926;2023-03-23T16:35:43;17.60;83.00
1165;DHT22;571;50.930;6.926;2023-03-23T16:38:12;17.60;84.30
1165;DHT22;571;50.930;6.926;2023-03-23T16:40:45;17.60;84.30
1165;DHT22;571;50.930;6.926;2023-03-23T16:48:33;17.40;84.70
1165;DHT22;571;50.930;6.926;2023-03-23T16:51:03;17.30;84.80
1165;DHT22;571;50.930;6.926;2023-03-23T16:54:18;17.30;85.40
1165;DHT22;571;50.930;6.926;2023-03-23T16:57:28;17.30;84.80
1165;DHT22;571;50.930;6.926;2023-03-23T17:00:08;17.30;84.80
1165;DHT22;571;50.930;6.926;2023-03-23T17:03:21;17.20;84.20
1165;DHT22;571;50.930;6.926;2023-03-23T17:05:50;17.10;84.90
1165;DHT22;571;50.930;6.926;2023-03-23T17:08:17;17.10;84.40
1165;DHT22;571;50.930;6.926;2023-03-23T17:10:45;17.00;84.00
1165;DHT22;571;50.930;6.926;2023-03-23T17:13:12;17.10;83.90
1165;DHT22;571;50.930;6.926;2023-03-23T17:19:38;16.90;84.50
1165;DHT22;571;50.930;6.926;2023-03-23T17:22:46;16.80;85.00
1165;DHT22;571;50.930;6.926;2023-03-23T17:51:22;16.30;86.80
1165;DHT22;571;50.930;6.926;2023-03-23T18:21:54;15.90;88.60
1165;DHT22;571;50.930;6.926;2023-03-23T18:24:59;15.90;89.40
1165;DHT22;571;50.930;6.926;2023-03-23T18:27:36;15.80;89.50
1165;DHT22;571;50.930;6.926;2023-03-23T18:30:12;15.80;89.50
1165;DHT22;571;50.930;6.926;2023-03-23T18:32:45;15.90;89.20
1165;DHT22;571;50.930;6.926;2023-03-23T18:35:19;15.90;89.60
1165;DHT22;571;50.930;6.926;2023-03-23T18:37:50;15.90;89.70
1165;DHT22;571;50.930;6.926;2023-03-23T18:40:17;15.90;89.40
1165;DHT22;571;50.930;6.926;2023-03-23T18:42:49;16.00;89.50
1165;DHT22;571;50.930;6.926;2023-03-23T18:45:19;16.00;89.20
1165;DHT22;571;50.930;6.926;2023-03-23T18:47:48;16.10;89.10
1165;DHT22;571;50.930;6.926;2023-03-23T18:50:16;15.90;90.00
1165;DHT22;571;50.930;6.926;2023-03-23T18:52:45;15.90;90.20
1165;DHT22;571;50.930;6.926;2023-03-23T18:55:21;15.90;90.00
1165;DHT22;571;50.930;6.926;2023-03-23T18:57:51;16.00;90.10
1165;DHT22;571;50.930;6.926;2023-03-23T19:00:19;15.80;90.30
1165;DHT22;571;50.930;6.926;2023-03-23T19:02:52;15.70;90.70
1165;DHT22;571;50.930;6.926;2023-03-23T19:05:25;15.90;90.40
1165;DHT22;571;50.930;6.926;2023-03-23T19:07:56;15.80;90.60
1165;DHT22;571;50.930;6.926;2023-03-23T19:10:29;15.80;91.00
1165;DHT22;571;50.930;6.926;2023-03-23T19:12:56;15.80;90.70
1165;DHT22;571;50.930;6.926;2023-03-23T19:15:23;15.80;90.90
1165;DHT22;571;50.930;6.926;2023-03-23T19:17:52;15.80;91.00
1165;DHT22;571;50.930;6.926;2023-03-23T19:20:21;15.60;91.30
1165;DHT22;571;50.930;6.926;2023-03-23T19:22:52;15.60;91.50
1165;DHT22;571;50.930;6.926;2023-03-23T19:25:20;15.60;91.80
1165;DHT22;571;50.930;6.926;2023-03-23T19:27:49;15.60;91.70
1165;DHT22;571;50.930;6.926;2023-03-23T19:30:18;15.60;91.80
1165;DHT22;571;50.930;6.926;2023-03-23T19:32:49;15.60;92.00
1165;DHT22;571;50.930;6.926;2023-03-23T19:35:46;15.60;92.20
1165;DHT22;571;50.930;6.926;2023-03-23T19:38:53;15.60;92.10
1165;DHT22;571;50.930;6.926;2023-03-23T19:41:34;15.60;92.10
1165;DHT22;571;50.930;6.926;2023-03-23T19:44:27;15.50;92.40
1165;DHT22;571;50.930;6.926;2023-03-23T19:46:54;15.50;92.30
1165;DHT22;571;50.930;6.926;2023-03-23T19:49:35;15.60;92.40
1165;DHT22;571;50.930;6.926;2023-03-23T19:52:15;15.50;92.40
1165;DHT22;571;50.930;6.926;2023-03-23T19:55:06;15.60;92.50
1165;DHT22;571;50.930;6.926;2023-03-23T19:57:40;15.60;92.40
1165;DHT22;571;50.930;6.926;2023-03-23T20:00:51;15.60;92.50
1165;DHT22;571;50.930;6.926;2023-03-23T20:03:33;15.60;92.50
1165;DHT22;571;50.930;6.926;2023-03-23T20:06:09;15.60;92.60
1165;DHT22;571;50.930;6.926;2023-03-23T20:08:45;15.50;92.70
1165;DHT22;571;50.930;6.926;2023-03-23T20:14:46;15.50;92.70
1165;DHT22;571;50.930;6.926;2023-03-23T20:17:41;15.50;92.70
1165;DHT22;571;50.930;6.926;2023-03-23T20:20:24;15.50;92.80
1165;DHT22;571;50.930;6.926;2023-03-23T20:22:57;15.40;93.20
1165;DHT22;571;50.930;6.926;2023-03-23T20:25:36;15.40;93.10
1165;DHT22;571;50.930;6.926;2023-03-23T20:28:04;15.40;92.90
1165;DHT22;571;50.930;6.926;2023-03-23T20:30:36;15.50;92.80
1165;DHT22;571;50.930;6.926;2023-03-23T20:33:09;15.40;93.20
1165;DHT22;571;50.930;6.926;2023-03-23T20:35:48;15.40;93.30
1165;DHT22;571;50.930;6.926;2023-03-23T20:38:18;15.50;92.90
1165;DHT22;571;50.930;6.926;2023-03-23T20:40:57;15.50;92.80
1165;DHT22;571;50.930;6.926;2023-03-23T20:43:41;15.40;92.90
1165;DHT22;571;50.930;6.926;2023-03-23T20:46:18;15.40;93.00
1165;DHT22;571;50.930;6.926;2023-03-23T20:48:58;15.40;93.00
1165;DHT22;571;50.930;6.926;2023-03-23T20:51:29;15.40;92.90
1165;DHT22;571;50.930;6.926;2023-03-23T20:54:14;15.40;93.10
1165;DHT22;571;50.930;6.926;2023-03-23T20:57:00;15.40;93.10
1165;DHT22;571;50.930;6.926;2023-03-23T20:59:28;15.30;93.00
1165;DHT22;571;50.930;6.926;2023-03-23T21:02:13;15.40;93.10
1165;DHT22;571;50.930;6.926;2023-03-23T21:05:06;15.40;93.10
1165;DHT22;571;50.930;6.926;2023-03-23T21:07:47;15.30;93.40
1165;DHT22;571;50.930;6.926;2023-03-23T21:10:25;15.30;93.20
1165;DHT22;571;50.930;6.926;2023-03-23T21:13:27;15.30;93.60
1165;DHT22;571;50.930;6.926;2023-03-23T21:16:12;15.20;93.50
1165;DHT22;571;50.930;6.926;2023-03-23T21:18:45;15.20;93.50
1165;DHT22;571;50.930;6.926;2023-03-23T21:21:27;15.10;93.80
1165;DHT22;571;50.930;6.926;2023-03-23T21:24:09;15.30;93.50
1165;DHT22;571;50.930;6.926;2023-03-23T21:27:02;15.30;93.60
1165;DHT22;571;50.930;6.926;2023-03-23T21:30:02;15.40;93.30
1165;DHT22;571;50.930;6.926;2023-03-23T21:33:00;15.30;93.60
1165;DHT22;571;50.930;6.926;2023-03-23T21:35:58;15.30;93.90
1165;DHT22;571;50.930;6.926;2023-03-23T21:38:42;15.30;93.90
1165;DHT22;571;50.930;6.926;2023-03-23T21:42:14;15.20;94.20
1165;DHT22;571;50.930;6.926;2023-03-23T21:44:41;15.30;94.10
1165;DHT22;571;50.930;6.926;2023-03-23T21:47:10;15.40;94.10
1165;DHT22;571;50.930;6.926;2023-03-23T21:49:44;15.40;94.10
1165;DHT22;571;50.930;6.926;2023-03-23T21:52:14;15.40;94.30
1165;DHT22;571;50.930;6.926;2023-03-23T21:54:43;15.40;94.30
1165;DHT22;571;50.930;6.926;2023-03-23T21:57:13;15.30;94.50
1165;DHT22;571;50.930;6.926;2023-03-23T21:59:40;15.30;94.60
1165;DHT22;571;50.930;6.926;2023-03-23T22:02:10;15.30;94.50
1165;DHT22;571;50.930;6.926;2023-03-23T22:04:38;15.30;94.70
1165;DHT22;571;50.930;6.926;2023-03-23T22:07:05;15.40;94.50
1165;DHT22;571;50.930;6.926;2023-03-23T22:09:35;15.40;94.80
1165;DHT22;571;50.930;6.926;2023-03-23T22:12:08;15.30;94.60
1165;DHT22;571;50.930;6.926;2023-03-23T22:14:37;15.30;94.70
1165;DHT22;571;50.930;6.926;2023-03-23T22:17:05;15.30;94.80
1165;DHT22;571;50.930;6.926;2023-03-23T22:19:39;15.20;95.20
1165;DHT22;571;50.930;6.926;2023-03-23T22:22:07;15.20;95.20
1165;DHT22;571;50.930;6.926;2023-03-23T22:24:36;15.20;95.60
1165;DHT22;571;50.930;6.926;2023-03-23T22:27:05;15.20;95.70
1165;DHT22;571;50.930;6.926;2023-03-23T22:29:33;15.20;95.80
1165;DHT22;571;50.930;6.926;2023-03-23T22:32:00;15.10;96.10
1165;DHT22;571;50.930;6.926;2023-03-23T22:34:29;15.10;96.20
1165;DHT22;571;50.930;6.926;2023-03-23T22:36:57;15.10;96.50
1165;DHT22;571;50.930;6.926;2023-03-23T22:39:28;15.00;96.60